Time;durP1;ratioP1;P1;durP2;ratioP2;P2;SDS_P1;SDS_P2;PMS_P1;PMS_P2;Temp;Humidity;BMP_temperature;BMP_pressure;BME280_temperature;BME280_humidity;BME280_pressure;Samples;Min_cycle;Max_cycle;Signal;HPM_P1;HPM_P2
2021/12/09 00:01:21;;;;;;;3.42;2.95;;;2.70;99.90;;;;;;5073878;28;20209;-86
2021/12/09 00:03:49;;;;;;;3.22;2.92;;;2.60;99.90;;;;;;5080468;28;20201;-86
2021/12/09 00:06:21;;;;;;;3.63;1.90;;;;;;;;;;5080558;28;20255;-85
2021/12/09 00:08:48;;;;;;;2.90;2.00;;;;;;;;;;5076649;28;20200;-86
2021/12/09 00:11:16;;;;;;;2.70;2.50;;;;;;;;;;5078301;28;20195;-85
2021/12/09 00:13:43;;;;;;;2.03;1.83;;;;;;;;;;5081438;28;20262;-86
2021/12/09 00:16:12;;;;;;;3.60;2.88;;;;;;;;;;5080903;28;20312;-86
2021/12/09 00:18:39;;;;;;;2.53;2.35;;;;;;;;;;5082273;28;20206;-87
2021/12/09 00:21:06;;;;;;;4.13;2.88;;;;;;;;;;5081428;28;20199;-86
2021/12/09 00:23:33;;;;;;;2.50;2.30;;;;;;;;;;5080780;28;20289;-87
2021/12/09 00:26:01;;;;;;;3.60;2.13;;;;;;;;;;5078728;28;20268;-87
2021/12/09 00:28:28;;;;;;;1.80;1.52;;;;;;;;;;5082810;28;20239;-87
2021/12/09 00:30:55;;;;;;;2.92;2.80;;;;;;;;;;5087995;28;20226;-86
2021/12/09 00:33:24;;;;;;;2.55;1.88;;;;;;;;;;5076713;28;20411;-87
2021/12/09 00:35:55;;;;;;;2.65;2.45;;;;;;;;;;5084714;28;20674;-87
2021/12/09 00:38:33;;;;;;;2.20;1.80;;;;;;;;;;5078370;28;20311;-86
2021/12/09 00:41:02;;;;;;;2.40;2.20;;;2.10;99.90;;;;;;5077887;28;20208;-86
2021/12/09 00:43:29;;;;;;;3.00;1.92;;;;;;;;;;5081016;28;20251;-86
2021/12/09 00:45:57;;;;;;;2.80;2.05;;;;;;;;;;5081879;28;20203;-86
2021/12/09 00:48:26;;;;;;;4.22;2.15;;;;;;;;;;5082021;28;20213;-86
2021/12/09 00:50:55;;;;;;;2.15;1.95;;;2.20;99.90;;;;;;5079641;28;20589;-86
2021/12/09 00:53:22;;;;;;;2.75;2.35;;;;;;;;;;5086634;28;20273;-86
2021/12/09 00:55:49;;;;;;;3.50;2.65;;;;;;;;;;5082568;28;20283;-86
2021/12/09 00:58:16;;;;;;;2.92;2.20;;;;;;;;;;5079507;28;20328;-86
2021/12/09 01:00:44;;;;;;;4.97;2.05;;;;;;;;;;5086277;28;20289;-86
2021/12/09 01:03:11;;;;;;;2.13;1.92;;;;;;;;;;5079016;28;20268;-86
2021/12/09 01:05:40;;;;;;;4.25;2.20;;;;;;;;;;5080823;28;20238;-86
2021/12/09 01:08:07;;;;;;;3.90;2.72;;;2.30;99.90;;;;;;5075193;28;20666;-85
2021/12/09 01:10:35;;;;;;;7.65;3.38;;;;;;;;;;5078654;28;20923;-85
2021/12/09 01:13:02;;;;;;;4.20;3.78;;;;;;;;;;5080462;28;20208;-86
2021/12/09 01:15:29;;;;;;;5.28;3.78;;;;;;;;;;5080673;28;20203;-86
2021/12/09 01:17:56;;;;;;;5.05;4.47;;;;;;;;;;5081075;28;20257;-85
2021/12/09 01:20:25;;;;;;;4.13;3.70;;;2.40;99.90;;;;;;5080001;28;20233;-85
2021/12/09 01:22:54;;;;;;;6.57;4.70;;;;;;;;;;5079507;28;20280;-85
2021/12/09 01:25:22;;;;;;;4.65;3.70;;;2.50;99.90;;;;;;5077638;28;20269;-85
2021/12/09 01:27:52;;;;;;;3.80;3.50;;;;;;;;;;5071304;28;20229;-85
2021/12/09 01:30:21;;;;;;;5.03;4.32;;;2.60;99.90;;;;;;5078353;28;20300;-85
2021/12/09 01:32:51;;;;;;;3.88;3.55;;;2.50;99.90;;;;;;5082657;28;20203;-85
2021/12/09 01:35:20;;;;;;;7.43;3.92;;;2.50;99.90;;;;;;5082762;28;20195;-85
2021/12/09 01:37:47;;;;;;;4.72;4.10;;;;;;;;;;5079357;28;20251;-85
2021/12/09 01:40:16;;;;;;;3.95;3.65;;;;;;;;;;5081909;28;20221;-87
2021/12/09 01:42:44;;;;;;;3.65;3.17;;;;;;;;;;5081796;28;20204;-85
2021/12/09 01:45:12;;;;;;;4.60;3.33;;;;;;;;;;5083615;28;20610;-85
2021/12/09 01:47:39;;;;;;;4.70;3.42;;;;;;;;;;5079873;28;20211;-85
2021/12/09 01:50:06;;;;;;;3.88;3.25;;;;;;;;;;5082561;28;20206;-85
2021/12/09 01:52:34;;;;;;;4.20;3.60;;;;;;;;;;5071857;28;20288;-85
2021/12/09 01:55:01;;;;;;;4.82;3.97;;;;;;;;;;5077280;28;20256;-85
2021/12/09 01:57:30;;;;;;;4.03;3.63;;;;;;;;;;5083277;28;20231;-84
2021/12/09 01:59:57;;;;;;;6.05;4.10;;;;;;;;;;5084772;28;20279;-85
2021/12/09 02:02:24;;;;;;;5.80;4.03;;;;;;;;;;5077624;28;20292;-84
2021/12/09 02:04:51;;;;;;;4.40;4.00;;;;;;;;;;5081621;28;20866;-85
2021/12/09 02:07:19;;;;;;;5.28;4.85;;;;;;;;;;5084444;28;20208;-85
2021/12/09 02:09:48;;;;;;;6.07;4.28;;;;;;;;;;5075900;28;20209;-85
2021/12/09 02:12:17;;;;;;;6.20;5.57;;;;;;;;;;5083456;28;20209;-84
2021/12/09 02:14:47;;;;;;;6.47;5.82;;;;;;;;;;5084869;28;20212;-85
2021/12/09 02:17:14;;;;;;;5.72;5.22;;;;;;;;;;5082633;28;20258;-85
2021/12/09 02:19:44;;;;;;;7.90;5.78;;;2.60;99.90;;;;;;5076348;28;20204;-85
2021/12/09 02:22:15;;;;;;;6.05;5.32;;;2.60;99.90;;;;;;5075901;28;20205;-85
2021/12/09 02:24:43;;;;;;;7.55;6.22;;;;;;;;;;5078988;28;20205;-85
2021/12/09 02:27:11;;;;;;;8.45;5.63;;;;;;;;;;5080650;28;20231;-85
2021/12/09 02:29:41;;;;;;;7.30;5.93;;;;;;;;;;5076992;28;20772;-85
2021/12/09 02:32:10;;;;;;;7.25;4.93;;;;;;;;;;5077136;28;20273;-85
2021/12/09 02:34:37;;;;;;;7.65;6.70;;;;;;;;;;5080528;28;20204;-85
2021/12/09 02:37:05;;;;;;;6.82;5.13;;;2.70;99.90;;;;;;5085854;28;20205;-85
2021/12/09 02:39:33;;;;;;;6.72;4.93;;;;;;;;;;5076187;28;20208;-85
2021/12/09 02:42:01;;;;;;;7.38;5.78;;;;;;;;;;5077463;28;20240;-85
2021/12/09 02:44:28;;;;;;;11.10;5.97;;;2.80;99.90;;;;;;5081443;28;20787;-85
2021/12/09 02:46:56;;;;;;;14.30;5.43;;;2.80;99.90;;;;;;5076667;28;20687;-85
2021/12/09 02:49:27;;;;;;;7.22;5.32;;;2.70;99.90;;;;;;5076920;28;20237;-85
2021/12/09 02:51:55;;;;;;;10.10;5.82;;;2.70;99.90;;;;;;5078055;28;20215;-85
2021/12/09 02:54:23;;;;;;;7.38;5.63;;;2.70;99.90;;;;;;5078453;28;20615;-85
2021/12/09 02:56:54;;;;;;;10.05;4.90;;;2.70;99.90;;;;;;5079357;28;20212;-85
2021/12/09 02:59:21;;;;;;;5.15;4.63;;;3.30;99.90;;;;;;5079538;28;20610;-85
2021/12/09 03:01:57;;;;;;;17.40;5.97;;;2.70;99.90;;;;;;5078023;28;20555;-85
2021/12/09 03:04:25;;;;;;;9.23;5.18;;;2.60;99.90;;;;;;5080892;28;20210;-85
2021/12/09 03:06:54;;;;;;;5.00;4.32;;;;;;;;;;5077649;28;20262;-85
2021/12/09 03:09:22;;;;;;;7.88;5.05;;;2.60;99.90;;;;;;5078271;28;20221;-85
2021/12/09 03:11:55;;;;;;;7.82;5.30;;;2.60;99.90;;;;;;5083111;28;20204;-84
2021/12/09 03:14:23;;;;;;;5.93;3.70;;;2.60;99.90;;;;;;5068704;28;20204;-85
2021/12/09 03:16:51;;;;;;;12.52;5.60;;;;;;;;;;5068269;28;20268;-85
2021/12/09 03:19:18;;;;;;;7.82;5.47;;;;;;;;;;5072290;28;20292;-85
2021/12/09 03:21:47;;;;;;;6.25;4.57;;;2.60;99.90;;;;;;5076893;28;20251;-85
2021/12/09 03:24:16;;;;;;;7.57;4.63;;;2.60;99.90;;;;;;5078933;28;20287;-85
2021/12/09 03:26:47;;;;;;;4.60;3.90;;;2.50;99.90;;;;;;5079651;28;20755;-85
2021/12/09 03:29:19;;;;;;;7.65;5.05;;;2.60;99.90;;;;;;5082432;28;20213;-85
2021/12/09 03:31:49;;;;;;;11.77;4.30;;;2.50;99.90;;;;;;5077727;28;20208;-84
2021/12/09 03:34:17;;;;;;;6.70;5.03;;;2.60;99.90;;;;;;5080069;28;20257;-85
2021/12/09 03:36:46;;;;;;;6.10;4.97;;;2.60;99.90;;;;;;5071206;28;20211;-85
2021/12/09 03:39:17;;;;;;;6.25;5.05;;;2.60;99.90;;;;;;5079156;28;20780;-84
2021/12/09 03:41:45;;;;;;;7.00;4.50;;;;;;;;;;5082930;28;21019;-85
2021/12/09 03:44:12;;;;;;;6.53;4.70;;;;;;;;;;5074383;28;20204;-85
2021/12/09 03:46:41;;;;;;;7.97;5.47;;;;;;;;;;5074191;28;20282;-84
2021/12/09 03:49:08;;;;;;;9.60;6.43;;;;;;;;;;5079976;28;20306;-84
2021/12/09 03:51:35;;;;;;;16.25;7.28;;;;;;;;;;5077713;28;20235;-85
2021/12/09 03:54:03;;;;;;;7.78;5.30;;;;;;;;;;5079923;28;20277;-84
2021/12/09 03:56:30;;;;;;;7.53;5.57;;;;;;;;;;5082215;28;20239;-84
2021/12/09 03:58:57;;;;;;;6.78;5.00;;;;;;;;;;5085670;28;20315;-84
2021/12/09 04:01:24;;;;;;;6.63;5.53;;;;;;;;;;5076142;28;20235;-84
2021/12/09 04:03:53;;;;;;;9.60;6.43;;;;;;;;;;5082376;28;20204;-84
2021/12/09 04:06:20;;;;;;;7.15;5.80;;;;;;;;;;5085225;28;20205;-85
2021/12/09 04:08:48;;;;;;;6.45;5.13;;;;;;;;;;5082842;28;20281;-84
2021/12/09 04:11:17;;;;;;;11.60;6.28;;;1.90;99.90;;;;;;5079196;28;20209;-84
2021/12/09 04:13:44;;;;;;;6.53;5.10;;;;;;;;;;5075386;28;20259;-85
2021/12/09 04:16:12;;;;;;;14.90;6.38;;;2.60;99.90;;;;;;5080804;28;20236;-85
2021/12/09 04:18:40;;;;;;;8.35;5.18;;;2.60;99.90;;;;;;5077710;28;20689;-84
2021/12/09 04:21:09;;;;;;;9.82;6.10;;;2.60;99.90;;;;;;5084855;28;20195;-84
2021/12/09 04:23:36;;;;;;;5.93;4.75;;;;;;;;;;5083547;28;20205;-85
2021/12/09 04:26:04;;;;;;;6.47;4.45;;;2.50;99.90;;;;;;5082897;28;20291;-85
2021/12/09 04:28:31;;;;;;;11.13;4.85;;;;;;;;;;5082927;28;20299;-84
2021/12/09 04:30:58;;;;;;;9.85;4.50;;;;;;;;;;5083814;28;20278;-84
2021/12/09 04:33:25;;;;;;;4.65;4.25;;;;;;;;;;5086623;28;20205;-84
2021/12/09 04:35:53;;;;;;;6.45;4.68;;;;;;;;;;5083517;28;20201;-85
2021/12/09 04:38:21;;;;;;;4.90;3.65;;;;;;;;;;5085253;28;20244;-85
2021/12/09 04:40:49;;;;;;;5.75;4.97;;;;;;;;;;5078823;28;20713;-85
2021/12/09 04:43:16;;;;;;;4.70;4.00;;;;;;;;;;5082663;28;20659;-85
2021/12/09 04:45:44;;;;;;;5.80;4.10;;;;;;;;;;5082005;28;20189;-85
2021/12/09 04:48:11;;;;;;;7.85;4.82;;;;;;;;;;5082832;28;20204;-84
2021/12/09 04:50:39;;;;;;;9.32;4.50;;;0.60;99.90;;;;;;5081839;28;20211;-85
2021/12/09 04:53:07;;;;;;;7.95;4.35;;;2.60;99.90;;;;;;5081445;28;20703;-85
2021/12/09 04:55:36;;;;;;;8.18;4.35;;;;;;;;;;5080709;28;20240;-85
2021/12/09 04:58:07;;;;;;;5.75;4.00;;;;;;;;;;5077112;28;20323;-84
2021/12/09 05:00:37;;;;;;;6.93;4.60;;;2.60;99.90;;;;;;5084744;28;20243;-85
2021/12/09 05:03:08;;;;;;;4.53;3.83;;;2.60;99.90;;;;;;5078608;28;20215;-85
2021/12/09 05:05:38;;;;;;;4.03;3.60;;;2.60;99.90;;;;;;5083520;28;20205;-85
2021/12/09 05:08:06;;;;;;;5.68;4.25;;;;;;;;;;5080764;28;20771;-84
2021/12/09 05:10:49;;;;;;;6.38;3.78;;;2.60;99.90;;;;;;5086177;28;20200;-85
2021/12/09 05:13:17;;;;;;;6.05;4.03;;;;;;;;;;5083607;28;20283;-84
2021/12/09 05:15:44;;;;;;;4.65;3.17;;;;;;;;;;5082965;28;20304;-85
2021/12/09 05:18:11;;;;;;;6.55;3.17;;;;;;;;;;5077424;28;20259;-84
2021/12/09 05:20:39;;;;;;;4.78;4.20;;;;;;;;;;5073974;28;20659;-85
2021/12/09 05:23:06;;;;;;;7.43;3.95;;;2.70;99.90;;;;;;5085087;28;20312;-85
2021/12/09 05:25:35;;;;;;;3.50;3.28;;;;;;;;;;5082207;28;20625;-85
2021/12/09 05:28:02;;;;;;;3.90;3.50;;;;;;;;;;5081991;28;20282;-85
2021/12/09 05:30:39;;;;;;;8.35;5.30;;;;;;;;;;5079123;28;20678;-85
2021/12/09 05:33:06;;;;;;;13.75;5.57;;;;;;;;;;5077697;28;20730;-85
2021/12/09 05:35:33;;;;;;;4.13;3.75;;;;;;;;;;5078214;28;20210;-85
2021/12/09 05:38:01;;;;;;;5.88;4.32;;;;;;;;;;5076114;28;20792;-85
2021/12/09 05:40:28;;;;;;;8.20;4.53;;;;;;;;;;5081981;28;20281;-85
2021/12/09 05:42:56;;;;;;;6.30;4.13;;;;;;;;;;5074892;28;20213;-85
2021/12/09 05:45:24;;;;;;;6.70;3.15;;;;;;;;;;5083882;28;20714;-85
2021/12/09 05:47:53;;;;;;;3.90;3.50;;;;;;;;;;5077753;28;20621;-85
2021/12/09 05:50:20;;;;;;;3.25;2.55;;;;;;;;;;5069865;28;20244;-85
2021/12/09 05:52:47;;;;;;;3.90;3.35;;;;;;;;;;5072424;28;20275;-85
2021/12/09 05:55:14;;;;;;;3.53;3.05;;;;;;;;;;5080100;28;20270;-84
2021/12/09 05:57:41;;;;;;;4.20;3.38;;;;;;;;;;5073865;28;20817;-85
2021/12/09 06:00:11;;;;;;;3.15;2.53;;;5.10;99.90;;;;;;5081073;28;20229;-85
2021/12/09 06:02:38;;;;;;;9.90;3.20;;;;;;;;;;5075053;28;20220;-85
2021/12/09 06:05:06;;;;;;;4.60;3.30;;;;;;;;;;5079371;28;20243;-85
2021/12/09 06:07:33;;;;;;;3.55;2.30;;;;;;;;;;5076856;28;20687;-85
2021/12/09 06:10:03;;;;;;;4.05;2.63;;;;;;;;;;5079023;28;20296;-85
2021/12/09 06:12:30;;;;;;;4.57;2.50;;;;;;;;;;5082264;28;20250;-85
2021/12/09 06:14:57;;;;;;;4.18;3.58;;;2.70;99.90;;;;;;5078162;28;20735;-85
2021/12/09 06:17:26;;;;;;;4.00;3.35;;;;;;;;;;5076867;28;20200;-85
2021/12/09 06:19:53;;;;;;;5.75;3.75;;;;;;;;;;5078822;28;20265;-86
2021/12/09 06:22:20;;;;;;;3.55;3.25;;;;;;;;;;5084090;28;20288;-86
2021/12/09 06:24:48;;;;;;;6.90;3.83;;;;;;;;;;5085266;28;20286;-85
2021/12/09 06:27:15;;;;;;;4.20;3.80;;;;;;;;;;5080483;28;20250;-86
2021/12/09 06:29:42;;;;;;;9.80;4.00;;;;;;;;;;5079506;28;20255;-85
2021/12/09 06:32:12;;;;;;;6.00;4.53;;;;;;;;;;5082459;28;20224;-85
2021/12/09 06:34:41;;;;;;;5.95;3.53;;;;;;;;;;5080627;28;20218;-85
2021/12/09 06:37:08;;;;;;;5.97;2.85;;;;;;;;;;5080131;28;20732;-84
2021/12/09 06:39:35;;;;;;;5.82;4.43;;;;;;;;;;5079823;28;20259;-85
2021/12/09 06:42:02;;;;;;;4.93;3.67;;;;;;;;;;5071533;28;20232;-85
2021/12/09 06:44:30;;;;;;;8.30;3.95;;;;;;;;;;5080057;28;20207;-84
2021/12/09 06:46:57;;;;;;;4.93;4.20;;;2.40;99.90;;;;;;5081537;28;20265;-84
2021/12/09 06:49:25;;;;;;;4.07;3.33;;;;;;;;;;5078627;28;20584;-84
2021/12/09 06:51:53;;;;;;;4.55;3.95;;;;;;;;;;5081433;28;20217;-85
2021/12/09 06:54:21;;;;;;;5.95;4.20;;;;;;;;;;5080802;28;20208;-85
2021/12/09 06:56:48;;;;;;;10.52;4.63;;;;;;;;;;5079640;28;20240;-85
2021/12/09 06:59:15;;;;;;;4.13;3.75;;;;;;;;;;5081316;28;20227;-85
2021/12/09 07:01:43;;;;;;;6.53;4.07;;;;;;;;;;5078171;28;20532;-85
2021/12/09 07:04:10;;;;;;;5.93;5.20;;;;;;;;;;5081046;28;20541;-85
2021/12/09 07:06:37;;;;;;;6.60;4.22;;;;;;;;;;5076432;28;20308;-85
2021/12/09 07:09:06;;;;;;;13.43;4.68;;;;;;;;;;5084751;28;20219;-85
2021/12/09 07:11:33;;;;;;;20.25;4.60;;;;;;;;;;5080024;28;20242;-84
2021/12/09 07:14:01;;;;;;;6.45;4.75;;;;;;;;;;5076630;28;20642;-85
2021/12/09 07:16:29;;;;;;;7.88;4.30;;;;;;;;;;5074370;28;20296;-84
2021/12/09 07:18:58;;;;;;;5.68;4.25;;;;;;;;;;5081563;28;20225;-85
2021/12/09 07:21:25;;;;;;;5.15;4.20;;;;;;;;;;5080517;28;20231;-85
2021/12/09 07:23:53;;;;;;;4.70;3.60;;;;;;;;;;5082811;28;20201;-85
2021/12/09 07:26:21;;;;;;;4.45;3.30;;;;;;;;;;5075907;28;20291;-85
2021/12/09 07:28:48;;;;;;;6.75;3.42;;;;;;;;;;5083788;28;20211;-85
2021/12/09 07:31:17;;;;;;;5.47;4.00;;;;;;;;;;5080685;28;20218;-85
2021/12/09 07:33:44;;;;;;;8.45;4.18;;;;;;;;;;5082698;28;20217;-85
2021/12/09 07:36:11;;;;;;;8.13;4.72;;;;;;;;;;5084965;28;20244;-85
2021/12/09 07:38:40;;;;;;;4.63;3.45;;;;;;;;;;5080062;28;20200;-85
2021/12/09 07:41:07;;;;;;;7.65;4.57;;;;;;;;;;5083850;28;20221;-86
2021/12/09 07:43:36;;;;;;;7.85;4.20;;;;;;;;;;5083495;28;20204;-85
2021/12/09 07:46:03;;;;;;;5.30;4.63;;;;;;;;;;5082949;28;20262;-85
2021/12/09 07:48:30;;;;;;;5.32;4.53;;;;;;;;;;5082045;28;20204;-85
2021/12/09 07:50:57;;;;;;;4.53;4.13;;;;;;;;;;5078193;28;20662;-85
2021/12/09 07:53:25;;;;;;;5.82;4.25;;;;;;;;;;5081376;28;20239;-85
2021/12/09 07:55:52;;;;;;;8.60;4.50;;;;;;;;;;5084048;28;20281;-85
2021/12/09 07:58:20;;;;;;;9.77;4.05;;;;;;;;;;5078218;28;20304;-85
2021/12/09 08:00:49;;;;;;;7.53;4.28;;;2.70;99.90;;;;;;5078543;28;20318;-84
2021/12/09 08:03:16;;;;;;;7.47;4.88;;;;;;;;;;5075616;28;20243;-85
2021/12/09 08:05:47;;;;;;;7.30;5.05;;;2.70;99.90;;;;;;5083402;28;20193;-85
2021/12/09 08:08:15;;;;;;;7.00;4.82;;;;;;;;;;5079060;28;20217;-85
2021/12/09 08:10:42;;;;;;;11.85;4.47;;;;;;;;;;5082769;28;20653;-85
2021/12/09 08:13:09;;;;;;;6.53;4.88;;;2.80;99.90;;;;;;5077417;28;20667;-85
2021/12/09 08:15:45;;;;;;;7.78;4.15;;;2.80;99.90;;;;;;5083137;28;20202;-86
2021/12/09 08:18:27;;;;;;;8.77;4.63;;;2.80;99.90;;;;;;5081341;28;20207;-86
2021/12/09 08:20:57;;;;;;;6.65;4.28;;;2.70;99.90;;;;;;5072682;28;20222;-86
2021/12/09 08:23:25;;;;;;;5.95;4.22;;;2.80;99.90;;;;;;5076204;28;20206;-85
2021/12/09 08:25:52;;;;;;;5.38;4.15;;;2.70;99.90;;;;;;5081544;28;20198;-85
2021/12/09 08:28:20;;;;;;;5.97;4.20;;;;;;;;;;5079250;28;20658;-85
2021/12/09 08:30:50;;;;;;;7.22;4.57;;;2.80;99.90;;;;;;5077844;28;20658;-85
2021/12/09 08:33:19;;;;;;;6.07;4.60;;;;;;;;;;5079859;28;20216;-85
2021/12/09 08:35:46;;;;;;;8.93;3.97;;;;;;;;;;5082816;28;21006;-85
2021/12/09 08:38:14;;;;;;;12.13;4.30;;;;;;;;;;5083364;28;20727;-85
2021/12/09 08:40:43;;;;;;;6.00;5.00;;;;;;;;;;5083359;28;20236;-85
2021/12/09 08:43:10;;;;;;;7.03;4.88;;;;;;;;;;5081684;28;20200;-85
2021/12/09 08:45:37;;;;;;;7.53;4.18;;;;;;;;;;5084351;28;20244;-85
2021/12/09 08:48:05;;;;;;;8.25;5.22;;;;;;;;;;5083420;28;21185;-85
2021/12/09 08:50:34;;;;;;;7.15;4.45;;;;;;;;;;5082473;28;20269;-85
2021/12/09 08:53:03;;;;;;;4.40;4.00;;;3.10;99.90;;;;;;5081884;28;20203;-86
2021/12/09 08:55:30;;;;;;;4.70;4.13;;;;;;;;;;5080234;28;20220;-85
2021/12/09 08:57:57;;;;;;;5.95;4.65;;;;;;;;;;5083051;28;20742;-85
2021/12/09 09:00:26;;;;;;;10.35;4.57;;;;;;;;;;5082069;28;20244;-85
2021/12/09 09:02:53;;;;;;;17.48;4.55;;;3.10;99.90;;;;;;5083186;28;20202;-85
2021/12/09 09:05:21;;;;;;;16.20;5.13;;;;;;;;;;5080294;28;20272;-85
2021/12/09 09:07:50;;;;;;;4.60;3.95;;;3.20;99.90;;;;;;5082223;28;20220;-85
2021/12/09 09:10:20;;;;;;;5.95;4.15;;;3.20;99.90;;;;;;5084964;28;20210;-85
2021/12/09 09:12:47;;;;;;;6.53;4.78;;;;;;;;;;5085055;28;20284;-86
2021/12/09 09:15:17;;;;;;;7.40;5.25;;;3.30;99.90;;;;;;5085603;28;20574;-85
2021/12/09 09:17:45;;;;;;;9.18;5.38;;;;;;;;;;5082979;28;20210;-85
2021/12/09 09:20:14;;;;;;;6.20;4.70;;;3.40;99.90;;;;;;5084796;28;20256;-85
2021/12/09 09:22:41;;;;;;;5.45;4.60;;;3.40;99.90;;;;;;5078494;28;20204;-85
2021/12/09 09:25:14;;;;;;;7.75;5.22;;;3.60;99.90;;;;;;5083657;28;20256;-85
2021/12/09 09:27:42;;;;;;;6.15;4.53;;;;;;;;;;5084072;28;20209;-85
2021/12/09 09:30:13;;;;;;;9.25;5.60;;;;;;;;;;5083816;28;20258;-85
2021/12/09 09:32:40;;;;;;;9.70;5.82;;;;;;;;;;5087411;28;20252;-85
2021/12/09 09:35:09;;;;;;;11.13;5.15;;;;;;;;;;5085998;28;20363;-85
2021/12/09 09:37:36;;;;;;;5.32;4.82;;;;;;;;;;5085103;28;20217;-85
2021/12/09 09:40:05;;;;;;;4.70;4.20;;;;;;;;;;5079924;28;20967;-85
2021/12/09 09:42:56;;;;;;;8.18;5.38;;;3.80;99.90;;;;;;5083042;28;20229;-85
2021/12/09 09:45:23;;;;;;;9.05;5.35;;;;;;;;;;5085658;28;20241;-86
2021/12/09 09:47:50;;;;;;;7.43;5.20;;;;;;;;;;5080145;28;20301;-85
2021/12/09 09:50:18;;;;;;;6.70;4.90;;;;;;;;;;5077013;28;20219;-85
2021/12/09 09:52:45;;;;;;;11.15;5.45;;;3.80;99.90;;;;;;5081455;28;20209;-85
2021/12/09 09:55:15;;;;;;;5.40;4.50;;;;;;;;;;5086592;28;20228;-86
2021/12/09 09:57:43;;;;;;;7.57;5.75;;;;;;;;;;5078880;28;20202;-85
2021/12/09 10:00:13;;;;;;;6.72;4.78;;;4.00;99.90;;;;;;5082136;28;20222;-85
2021/12/09 10:02:41;;;;;;;6.07;5.53;;;4.10;99.90;;;;;;5077139;28;20251;-85
2021/12/09 10:05:09;;;;;;;9.20;5.47;;;4.10;99.90;;;;;;5081461;28;20218;-85
2021/12/09 10:07:36;;;;;;;10.32;6.20;;;4.20;99.90;;;;;;5082878;28;20238;-85
2021/12/09 10:10:07;;;;;;;5.13;4.47;;;4.20;99.90;;;;;;5081354;28;20210;-85
2021/12/09 10:12:34;;;;;;;6.10;4.65;;;;;;;;;;5082144;28;20293;-86
2021/12/09 10:15:04;;;;;;;9.90;4.97;;;;;;;;;;5082436;28;20210;-85
2021/12/09 10:17:31;;;;;;;6.75;4.95;;;;;;;;;;5082024;28;20249;-85
2021/12/09 10:20:01;;;;;;;5.68;4.82;;;4.20;99.90;;;;;;5080517;28;20230;-85
2021/12/09 10:22:32;;;;;;;6.93;4.72;;;4.20;99.90;;;;;;5082647;28;20612;-85
2021/12/09 10:25:01;;;;;;;4.90;4.43;;;4.20;99.90;;;;;;5082702;28;20205;-85
2021/12/09 10:27:32;;;;;;;5.82;5.13;;;4.30;99.90;;;;;;5080992;28;20213;-85
2021/12/09 10:30:03;;;;;;;6.32;3.97;;;4.20;99.90;;;;;;5077997;28;20257;-85
2021/12/09 10:32:34;;;;;;;9.70;4.40;;;4.20;99.90;;;;;;5080874;28;20199;-86
2021/12/09 10:35:06;;;;;;;6.43;4.03;;;;;;;;;;5083502;28;20199;-85
2021/12/09 10:37:34;;;;;;;5.82;4.35;;;;;;;;;;5081912;28;20276;-85
2021/12/09 10:40:02;;;;;;;4.35;3.13;;;;;;;;;;5079947;28;20225;-85
2021/12/09 10:42:32;;;;;;;4.57;3.58;;;4.20;99.90;;;;;;5079920;28;20206;-85
2021/12/09 10:45:01;;;;;;;7.40;4.60;;;4.20;99.90;;;;;;5081607;28;20259;-85
2021/12/09 10:47:50;;;;;;;5.72;3.70;;;4.10;99.90;;;;;;5073647;28;20230;-85
2021/12/09 10:50:29;;;;;;;4.20;3.83;;;4.10;99.90;;;;;;5080108;28;20214;-85
2021/12/09 10:53:02;;;;;;;4.93;3.40;;;4.10;99.90;;;;;;5078502;28;20687;-85
2021/12/09 10:55:31;;;;;;;6.50;3.45;;;4.20;99.90;;;;;;5083755;28;20206;-85
2021/12/09 10:58:08;;;;;;;5.43;4.40;;;4.20;99.90;;;;;;5079876;28;20217;-85
2021/12/09 11:00:40;;;;;;;4.68;3.97;;;4.20;99.90;;;;;;5085127;28;20229;-85
2021/12/09 11:03:18;;;;;;;4.38;3.17;;;4.40;99.90;;;;;;5084516;28;20293;-85
2021/12/09 11:05:48;;;;;;;5.50;3.70;;;4.40;99.90;;;;;;5078633;28;20252;-85
2021/12/09 11:08:17;;;;;;;4.50;3.50;;;;;;;;;;5083527;28;20205;-85
2021/12/09 11:10:47;;;;;;;3.60;3.30;;;;;;;;;;5084770;28;20756;-85
2021/12/09 11:13:16;;;;;;;6.45;3.80;;;4.50;99.90;;;;;;5081945;28;20224;-85
2021/12/09 11:15:52;;;;;;;4.63;3.05;;;4.40;99.90;;;;;;5076115;28;20206;-85
2021/12/09 11:18:35;;;;;;;6.78;3.17;;;4.50;99.90;;;;;;5074276;28;20207;-85
2021/12/09 11:21:05;;;;;;;3.53;3.20;;;4.60;99.90;;;;;;5084427;28;20657;-85
2021/12/09 11:23:36;;;;;;;4.53;3.60;;;4.70;99.90;;;;;;5081401;28;20195;-85
2021/12/09 11:26:39;;;;;;;10.68;3.63;;;4.70;99.90;;;;;;5081218;28;20207;-85
2021/12/09 11:29:10;;;;;;;3.95;2.78;;;4.70;99.90;;;;;;5078579;28;20207;-85
2021/12/09 11:31:46;;;;;;;3.50;3.20;;;4.70;99.90;;;;;;5080748;28;20216;-85
2021/12/09 11:34:18;;;;;;;3.30;3.00;;;;;;;;;;5083378;28;20990;-85
2021/12/09 11:36:49;;;;;;;5.25;2.80;;;4.70;99.90;;;;;;5078181;28;20203;-85
2021/12/09 11:39:26;;;;;;;2.97;2.58;;;4.60;99.90;;;;;;5078233;28;20218;-85
2021/12/09 11:41:54;;;;;;;5.60;3.35;;;;;;;;;;5081212;28;20237;-85
2021/12/09 11:44:21;;;;;;;2.75;2.55;;;;;;;;;;5083328;28;20320;-85
2021/12/09 11:46:49;;;;;;;5.28;3.75;;;4.80;99.90;;;;;;5078046;28;20819;-85
2021/12/09 11:49:17;;;;;;;3.45;3.15;;;;;;;;;;5077321;28;20203;-85
2021/12/09 11:51:45;;;;;;;5.75;3.10;;;;;;;;;;5076126;28;20250;-85
2021/12/09 11:54:12;;;;;;;4.45;3.55;;;;;;;;;;5081240;28;20242;-85
2021/12/09 11:56:56;;;;;;;11.18;2.95;;;4.70;99.90;;;;;;5080472;28;20270;-85
2021/12/09 12:06:40;;;;;;;3.45;3.10;;;;;;;;;;5080902;28;20199;-85
2021/12/09 12:11:38;;;;;;;7.47;2.97;;;;;;;;;;5082548;28;20248;-85
2021/12/09 12:14:15;;;;;;;5.03;2.85;;;;;;;;;;5084875;28;20257;-83
2021/12/09 12:17:02;;;;;;;3.17;2.83;;;;;;;;;;5085804;28;20215;-85
2021/12/09 12:20:06;;;;;;;3.38;3.08;;;5.10;99.90;;;;;;5078509;28;20207;-85
2021/12/09 12:22:59;;;;;;;3.05;2.83;;;5.10;99.90;;;;;;5085473;28;20286;-85
2021/12/09 12:35:04;;;;;;;4.95;3.08;;;5.20;99.90;;;;;;5062098;28;20215;-86
2021/12/09 12:37:45;;;;;;;4.93;2.92;;;;;;;;;;5077702;28;20626;-85
2021/12/09 12:40:17;;;;;;;2.78;2.20;;;5.20;99.90;;;;;;5080680;28;20246;-85
2021/12/09 12:42:51;;;;;;;2.92;2.50;;;5.20;99.90;;;;;;5087451;28;20195;-85
2021/12/09 12:45:47;;;;;;;19.92;3.15;;;5.20;99.90;;;;;;5082724;28;20201;-85
2021/12/09 12:48:42;;;;;;;3.22;2.65;;;5.10;99.90;;;;;;5083686;28;20599;-85
2021/12/09 12:51:15;;;;;;;4.22;2.85;;;5.20;99.90;;;;;;5076741;28;20210;-85
2021/12/09 12:53:50;;;;;;;10.15;2.63;;;5.20;99.90;;;;;;5087747;28;20286;-85
2021/12/09 12:56:22;;;;;;;3.22;2.40;;;5.10;99.90;;;;;;5080468;28;20200;-85
2021/12/09 12:59:21;;;;;;;4.80;3.28;;;5.00;99.20;;;;;;5084195;28;20263;-85
2021/12/09 13:02:14;;;;;;;2.47;1.55;;;4.90;99.50;;;;;;5082810;28;20241;-85
2021/12/09 13:04:52;;;;;;;2.30;1.92;;;4.90;98.90;;;;;;5080060;28;20210;-85
2021/12/09 13:07:26;;;;;;;13.38;2.50;;;4.80;99.90;;;;;;5084268;28;20212;-85
2021/12/09 13:10:24;;;;;;;5.35;3.17;;;4.80;99.60;;;;;;5079489;28;20205;-84
2021/12/09 13:13:06;;;;;;;4.95;2.25;;;4.80;99.90;;;;;;5085425;28;20651;-84
2021/12/09 13:15:43;;;;;;;2.42;2.00;;;;;;;;;;5073282;28;20625;-85
2021/12/09 13:18:45;;;;;;;3.42;1.80;;;5.10;99.40;;;;;;5085312;28;20199;-85
2021/12/09 13:21:48;;;;;;;3.08;1.45;;;4.90;99.20;;;;;;5082162;28;20227;-85
2021/12/09 13:24:51;;;;;;;3.25;2.15;;;4.90;99.40;;;;;;5089340;28;20217;-85
2021/12/09 13:27:37;;;;;;;3.28;2.28;;;5.00;99.90;;;;;;5077297;28;20223;-85
2021/12/09 13:30:32;;;;;;;5.72;1.67;;;4.90;99.90;;;;;;5080566;28;20208;-84
2021/12/09 13:33:14;;;;;;;14.45;2.20;;;4.80;99.70;;;;;;5083062;28;20211;-84
2021/12/09 13:36:02;;;;;;;3.63;2.42;;;4.90;99.90;;;;;;5083834;28;20656;-85
2021/12/09 13:39:13;;;;;;;2.63;1.63;;;4.80;99.40;;;;;;5083197;28;20222;-85
2021/12/09 13:50:12;;;;;;;2.85;1.85;;;6.40;99.90;;;;;;5077748;28;20217;-84
2021/12/09 13:55:28;;;;;;;3.00;2.15;;;4.40;99.20;;;;;;5080975;28;20209;-85
2021/12/09 13:57:58;;;;;;;5.88;2.70;;;4.40;99.70;;;;;;5081000;28;20218;-85
2021/12/09 14:00:38;;;;;;;5.35;2.15;;;4.30;99.40;;;;;;5087418;28;20207;-84
2021/12/09 14:03:09;;;;;;;3.65;1.67;;;4.30;99.80;;;;;;5079076;28;20210;-85
2021/12/09 14:05:50;;;;;;;4.93;2.20;;;4.20;99.60;;;;;;5079615;28;20213;-85
2021/12/09 14:08:27;;;;;;;3.60;1.98;;;4.20;99.80;;;;;;5082126;28;20231;-85
2021/12/09 14:11:01;;;;;;;8.85;2.60;;;4.10;99.90;;;;;;5083187;28;20229;-85
2021/12/09 14:13:29;;;;;;;7.15;3.55;;;;;;;;;;5076431;28;20599;-85
2021/12/09 14:16:07;;;;;;;2.70;2.38;;;;;;;;;;5081809;28;20640;-85
2021/12/09 14:19:00;;;;;;;4.82;3.05;;;4.10;99.90;;;;;;5082298;28;20195;-85
2021/12/09 14:21:28;;;;;;;4.38;2.72;;;4.10;99.90;;;;;;5079921;28;20237;-85
2021/12/09 14:24:05;;;;;;;2.40;2.20;;;;;;;;;;5080166;28;20214;-84
2021/12/09 14:26:32;;;;;;;6.10;2.30;;;;;;;;;;5083766;28;20211;-85
2021/12/09 14:29:00;;;;;;;9.25;3.78;;;;;;;;;;5079300;28;20206;-85
2021/12/09 14:31:27;;;;;;;6.30;3.25;;;;;;;;;;5088734;28;20232;-85
2021/12/09 14:34:00;;;;;;;7.72;4.85;;;;;;;;;;5085616;28;20287;-85
2021/12/09 14:36:28;;;;;;;4.55;3.30;;;;;;;;;;5083970;28;20197;-84
2021/12/09 14:39:03;;;;;;;3.20;2.35;;;4.10;99.60;;;;;;5079920;28;20200;-85
2021/12/09 14:41:30;;;;;;;4.53;2.15;;;;;;;;;;5082079;28;20215;-85
2021/12/09 14:43:58;;;;;;;3.90;2.33;;;;;;;;;;5081841;28;20217;-85
2021/12/09 14:46:31;;;;;;;6.50;3.20;;;5.80;99.80;;;;;;5079264;28;20323;-84